createdAt,value
2023-01-31T00:03:19.972Z,9.10
2023-01-31T00:08:15.947Z,9.07
2023-01-31T00:13:15.803Z,9.04
2023-01-31T00:18:06.399Z,9.16
2023-01-31T00:22:59.467Z,9.16
2023-01-31T00:27:53.904Z,9.24
2023-01-31T00:32:47.152Z,9.43
2023-01-31T00:37:36.964Z,9.45
2023-01-31T00:42:34.562Z,9.49
2023-01-31T00:47:26.480Z,9.54
2023-01-31T00:52:19.718Z,9.67
2023-01-31T00:57:12.346Z,9.66
2023-01-31T01:02:22.187Z,9.64
2023-01-31T01:07:16.566Z,9.62
2023-01-31T01:12:10.996Z,9.61
2023-01-31T01:17:04.263Z,9.56
2023-01-31T01:22:03.265Z,9.57
2023-01-31T01:27:01.561Z,9.64
2023-01-31T01:31:55.560Z,9.56
2023-01-31T01:36:49.368Z,9.45
2023-01-31T01:41:46.799Z,9.45
2023-01-31T01:46:43.450Z,9.44
2023-01-31T01:51:37.232Z,9.75
2023-01-31T01:56:32.646Z,9.71
2023-01-31T02:01:27.922Z,9.70
2023-01-31T02:06:24.031Z,9.77
2023-01-31T02:11:21.203Z,9.78
2023-01-31T02:16:12.718Z,9.77
2023-01-31T02:21:27.453Z,9.90
2023-01-31T02:26:34.870Z,9.83
2023-01-31T02:31:45.229Z,9.85
2023-01-31T02:42:18.941Z,9.91
2023-01-31T02:47:17.236Z,9.89
2023-01-31T02:52:21.664Z,9.82
2023-01-31T02:57:25.547Z,9.73
2023-01-31T03:02:22.091Z,9.68
2023-01-31T03:07:17.419Z,9.61
2023-01-31T03:17:39.518Z,9.68
2023-01-31T03:22:34.586Z,9.75
2023-01-31T03:27:26.451Z,9.67
2023-01-31T03:32:22.033Z,9.59
2023-01-31T03:37:23.525Z,9.50
2023-01-31T03:42:27.433Z,9.43
2023-01-31T03:47:20.953Z,9.47
2023-01-31T03:52:18.442Z,9.44
2023-01-31T03:57:18.256Z,9.36
2023-01-31T04:02:10.830Z,9.37
2023-01-31T04:07:00.792Z,9.45
2023-01-31T04:11:51.866Z,9.50
2023-01-31T04:16:44.125Z,9.62
2023-01-31T04:21:36.030Z,9.58
2023-01-31T04:26:39.062Z,9.53
2023-01-31T04:31:40.812Z,9.57
2023-01-31T04:36:43.162Z,9.55
2023-01-31T04:41:35.236Z,9.51
2023-01-31T04:46:24.833Z,9.77
2023-01-31T04:51:15.172Z,9.64
2023-01-31T04:56:08.173Z,9.77
2023-01-31T05:00:58.843Z,9.71
2023-01-31T05:05:51.424Z,9.70
2023-01-31T05:10:45.484Z,9.80
2023-01-31T05:15:39.516Z,9.80
2023-01-31T05:20:32.612Z,9.87
2023-01-31T05:25:25.112Z,9.91
2023-01-31T05:30:18.303Z,9.91
2023-01-31T05:35:12.857Z,9.99
2023-01-31T05:40:07.830Z,9.99
2023-01-31T05:45:02.829Z,9.86
2023-01-31T05:49:53.092Z,9.87
2023-01-31T05:54:46.908Z,9.79
2023-01-31T05:59:38.015Z,9.72
2023-01-31T06:04:28.380Z,10.07
2023-01-31T06:09:19.566Z,9.82
2023-01-31T06:14:13.539Z,9.88
2023-01-31T06:19:10.002Z,10.16
2023-01-31T06:24:18.118Z,9.88
2023-01-31T06:29:13.341Z,10.09
2023-01-31T06:34:15.008Z,9.78
2023-01-31T06:39:11.354Z,9.97
2023-01-31T06:44:01.764Z,10.19
2023-01-31T06:48:56.063Z,10.08
2023-01-31T06:53:51.563Z,9.99
2023-01-31T06:58:42.087Z,10.14
2023-01-31T07:03:34.246Z,9.97
2023-01-31T07:08:30.318Z,9.93
2023-01-31T07:13:37.611Z,9.95
2023-01-31T07:18:31.765Z,9.90
2023-01-31T07:23:31.303Z,9.86
2023-01-31T07:28:25.278Z,9.94
2023-01-31T07:33:31.047Z,9.79
2023-01-31T07:38:22.746Z,9.80
2023-01-31T07:43:21.881Z,9.70
2023-01-31T07:48:23.484Z,9.89
2023-01-31T07:53:18.426Z,9.74
2023-01-31T07:58:09.183Z,9.73
2023-01-31T08:03:12.746Z,9.78
2023-01-31T08:08:10.894Z,9.73
2023-01-31T08:13:14.071Z,9.92
2023-01-31T08:18:06.517Z,9.78
2023-01-31T08:22:58.268Z,9.74
2023-01-31T08:27:48.278Z,9.85
2023-01-31T08:32:41.317Z,10.12
2023-01-31T08:37:35.555Z,10.20
2023-01-31T08:42:26.041Z,10.16
2023-01-31T08:47:18.749Z,10.14
2023-01-31T08:52:18.450Z,10.00
2023-01-31T08:57:12.621Z,10.16
2023-01-31T09:02:07.576Z,10.27
2023-01-31T09:06:58.160Z,10.40
2023-01-31T09:11:53.697Z,10.52
2023-01-31T09:16:45.991Z,10.76
2023-01-31T09:21:39.965Z,10.65
2023-01-31T09:26:33.301Z,10.64
2023-01-31T09:31:31.127Z,10.58
2023-01-31T09:36:25.457Z,10.72
2023-01-31T09:41:25.043Z,10.88
2023-01-31T09:46:20.216Z,10.99
2023-01-31T09:51:23.134Z,10.99
2023-01-31T09:56:23.183Z,11.10
2023-01-31T10:01:21.168Z,11.20
2023-01-31T10:06:23.401Z,11.10
2023-01-31T10:11:17.645Z,11.12
2023-01-31T10:16:15.628Z,11.42
2023-01-31T10:21:11.477Z,11.52
2023-01-31T10:26:09.529Z,11.66
2023-01-31T10:31:02.588Z,11.63
2023-01-31T10:35:55.313Z,11.89
2023-01-31T10:40:47.490Z,12.17
2023-01-31T10:45:41.928Z,12.49
2023-01-31T10:50:37.561Z,12.47
2023-01-31T10:55:36.314Z,12.44
2023-01-31T11:00:32.874Z,12.19
2023-01-31T11:05:27.700Z,12.20
2023-01-31T11:10:28.003Z,11.99
2023-01-31T11:15:19.467Z,12.28
2023-01-31T11:20:10.843Z,12.30
2023-01-31T11:25:05.305Z,12.19
2023-01-31T11:30:00.796Z,12.22
2023-01-31T11:35:01.174Z,12.26
2023-01-31T11:40:01.256Z,12.14
2023-01-31T11:45:06.199Z,12.00
2023-01-31T11:49:57.329Z,11.95
2023-01-31T11:54:49.900Z,12.08
2023-01-31T11:59:39.769Z,11.93
2023-01-31T12:04:35.282Z,12.20
2023-01-31T12:09:35.446Z,12.30
2023-01-31T12:14:27.084Z,12.25
2023-01-31T12:19:27.139Z,11.93
2023-01-31T12:24:29.111Z,12.01
2023-01-31T12:29:33.984Z,12.04
2023-01-31T12:34:59.491Z,12.10
2023-01-31T12:40:22.858Z,12.04
2023-01-31T12:45:25.636Z,12.00
2023-01-31T12:50:29.768Z,12.10
2023-01-31T12:55:29.859Z,12.31
2023-01-31T13:00:29.862Z,12.26
2023-01-31T13:05:37.321Z,12.19
2023-01-31T13:10:43.125Z,12.32
2023-01-31T13:15:40.095Z,12.42
2023-01-31T13:20:36.843Z,12.40
2023-01-31T13:25:32.256Z,12.56
2023-01-31T13:30:32.077Z,12.73
2023-01-31T13:35:32.010Z,12.67
2023-01-31T13:40:24.184Z,12.89
2023-01-31T13:45:26.460Z,13.10
2023-01-31T13:50:28.370Z,13.12
2023-01-31T13:55:30.624Z,12.86
2023-01-31T14:00:33.762Z,13.00
2023-01-31T14:05:38.545Z,12.71
2023-01-31T14:10:40.055Z,12.98
2023-01-31T14:15:57.016Z,13.15
2023-01-31T14:20:46.873Z,12.98
2023-01-31T14:25:59.334Z,13.09
2023-01-31T14:30:52.589Z,13.06
2023-01-31T14:36:05.506Z,13.11
2023-01-31T14:41:09.471Z,13.20
2023-01-31T14:46:22.077Z,12.97
2023-01-31T14:51:25.895Z,13.04
2023-01-31T14:56:49.899Z,13.14
2023-01-31T15:01:41.530Z,13.02
2023-01-31T15:06:44.546Z,13.04
2023-01-31T15:11:50.822Z,13.11
2023-01-31T15:16:42.985Z,13.11
2023-01-31T15:21:40.386Z,13.26
2023-01-31T15:26:38.937Z,13.04
2023-01-31T15:31:47.418Z,13.18
2023-01-31T15:36:50.075Z,13.07
2023-01-31T15:41:42.925Z,13.14
2023-01-31T15:46:38.929Z,13.11
2023-01-31T15:51:31.816Z,13.11
2023-01-31T15:56:24.865Z,13.01
2023-01-31T16:01:24.406Z,13.10
2023-01-31T16:06:29.439Z,13.00
2023-01-31T16:11:25.294Z,13.00
2023-01-31T16:16:19.903Z,13.13
2023-01-31T16:21:34.122Z,13.17
2023-01-31T16:26:31.044Z,13.01
2023-01-31T16:31:28.678Z,12.95
2023-01-31T16:36:33.519Z,12.99
2023-01-31T16:41:45.028Z,12.88
2023-01-31T16:46:45.742Z,12.91
2023-01-31T16:51:45.686Z,12.81
2023-01-31T16:56:44.435Z,12.71
2023-01-31T17:01:40.039Z,11.71
2023-01-31T17:06:41.426Z,11.68
2023-01-31T17:11:42.946Z,11.76
2023-01-31T17:16:38.586Z,11.72
2023-01-31T17:21:32.054Z,11.51
2023-01-31T17:26:29.733Z,11.55
2023-01-31T17:31:29.965Z,11.70
2023-01-31T17:36:35.014Z,11.65
2023-01-31T17:41:30.865Z,11.58
2023-01-31T17:46:24.367Z,11.48
2023-01-31T17:51:19.433Z,11.38
2023-01-31T17:56:23.410Z,11.24
2023-01-31T18:01:25.719Z,11.23
2023-01-31T18:06:22.643Z,10.90
2023-01-31T18:11:31.572Z,10.93
2023-01-31T18:16:26.294Z,10.91
2023-01-31T18:21:32.249Z,10.88
2023-01-31T18:26:40.277Z,10.76
2023-01-31T18:31:49.468Z,10.64
2023-01-31T18:36:58.657Z,10.55
2023-01-31T18:41:59.174Z,10.51
2023-01-31T18:46:52.044Z,10.33
2023-01-31T18:51:53.724Z,10.14
2023-01-31T18:56:57.684Z,10.19
2023-01-31T19:02:08.461Z,10.28
2023-01-31T19:07:12.918Z,10.26
2023-01-31T19:12:23.618Z,10.25
2023-01-31T19:17:26.117Z,10.30
2023-01-31T19:22:18.329Z,10.24
2023-01-31T19:27:14.479Z,10.27
2023-01-31T19:32:13.576Z,10.19
2023-01-31T19:37:11.963Z,10.06
2023-01-31T19:42:07.935Z,9.99
2023-01-31T19:47:00.615Z,9.88
2023-01-31T19:51:51.115Z,9.97
2023-01-31T19:56:42.022Z,9.80
2023-01-31T20:01:36.730Z,9.87
2023-01-31T20:06:31.956Z,9.66
2023-01-31T20:11:25.711Z,9.78
2023-01-31T20:16:24.684Z,9.85
2023-01-31T20:21:26.523Z,9.96
2023-01-31T20:26:26.773Z,10.01
2023-01-31T20:31:35.832Z,10.08
2023-01-31T20:36:29.927Z,9.96
2023-01-31T20:41:27.181Z,9.91
2023-01-31T20:46:21.553Z,9.96
2023-01-31T20:51:27.161Z,9.86
2023-01-31T20:56:18.604Z,9.86
2023-01-31T21:01:20.744Z,9.84
2023-01-31T21:06:16.060Z,9.86
2023-01-31T21:11:18.416Z,9.87
2023-01-31T21:16:22.331Z,9.85
2023-01-31T21:21:23.436Z,9.65
2023-01-31T21:26:20.983Z,9.78
2023-01-31T21:31:22.217Z,9.84
2023-01-31T21:36:17.127Z,9.85
2023-01-31T21:41:26.910Z,9.70
2023-01-31T21:46:26.653Z,9.73
2023-01-31T21:51:32.753Z,9.68
2023-01-31T21:56:41.503Z,9.59
2023-01-31T22:01:45.471Z,9.57
2023-01-31T22:06:43.391Z,9.38
2023-01-31T22:11:40.213Z,9.49
2023-01-31T22:16:43.108Z,9.48
2023-01-31T22:21:36.581Z,9.50
2023-01-31T22:26:32.134Z,9.44
2023-01-31T22:31:29.678Z,9.34
2023-01-31T22:36:27.491Z,9.28
2023-01-31T22:41:22.579Z,9.23
2023-01-31T22:46:18.409Z,9.19
2023-01-31T22:51:15.362Z,9.33
2023-01-31T22:56:16.769Z,9.24
2023-01-31T23:01:21.812Z,9.16
2023-01-31T23:06:18.120Z,8.99
2023-01-31T23:11:16.839Z,9.04
2023-01-31T23:16:13.709Z,9.07
2023-01-31T23:21:20.649Z,9.00
2023-01-31T23:26:30.775Z,9.03
2023-01-31T23:31:29.584Z,8.92
2023-01-31T23:36:25.391Z,9.01
2023-01-31T23:41:21.695Z,9.04
2023-01-31T23:46:22.878Z,9.04
2023-01-31T23:51:14.648Z,9.15
2023-01-31T23:56:06.986Z,9.13
